sensor_id;sensor_type;location;lat;lon;timestamp;P1;durP1;ratioP1;P2;durP2;ratioP2
10661;SDS011;5379;51.034;7.006;2023-03-12T00:02:03;5.13;;;3.50;;
10661;SDS011;5379;51.034;7.006;2023-03-12T00:04:31;4.40;;;3.77;;
10661;SDS011;5379;51.034;7.006;2023-03-12T00:07:00;10.27;;;4.00;;
10661;SDS011;5379;51.034;7.006;2023-03-12T00:09:30;5.50;;;3.47;;
10661;SDS011;5379;51.034;7.006;2023-03-12T00:12:01;3.50;;;3.20;;
10661;SDS011;5379;51.034;7.006;2023-03-12T00:14:28;4.73;;;3.20;;
10661;SDS011;5379;51.034;7.006;2023-03-12T00:16:54;2.97;;;2.63;;
10661;SDS011;5379;51.034;7.006;2023-03-12T00:19:23;5.03;;;3.27;;
10661;SDS011;5379;51.034;7.006;2023-03-12T00:21:51;3.60;;;2.70;;
10661;SDS011;5379;51.034;7.006;2023-03-12T00:24:18;4.37;;;3.20;;
10661;SDS011;5379;51.034;7.006;2023-03-12T00:26:45;2.80;;;2.53;;
10661;SDS011;5379;51.034;7.006;2023-03-12T00:29:13;2.77;;;2.50;;
10661;SDS011;5379;51.034;7.006;2023-03-12T00:31:40;2.27;;;2.13;;
10661;SDS011;5379;51.034;7.006;2023-03-12T00:34:07;6.77;;;3.00;;
10661;SDS011;5379;51.034;7.006;2023-03-12T00:36:36;4.83;;;2.90;;
10661;SDS011;5379;51.034;7.006;2023-03-12T00:39:10;5.00;;;2.63;;
10661;SDS011;5379;51.034;7.006;2023-03-12T00:41:38;7.60;;;2.87;;
10661;SDS011;5379;51.034;7.006;2023-03-12T00:44:05;4.17;;;2.57;;
10661;SDS011;5379;51.034;7.006;2023-03-12T00:46:32;2.77;;;2.37;;
10661;SDS011;5379;51.034;7.006;2023-03-12T00:48:59;2.57;;;2.37;;
10661;SDS011;5379;51.034;7.006;2023-03-12T00:51:26;2.97;;;2.63;;
10661;SDS011;5379;51.034;7.006;2023-03-12T00:53:54;6.77;;;2.17;;
10661;SDS011;5379;51.034;7.006;2023-03-12T00:56:21;5.40;;;2.70;;
10661;SDS011;5379;51.034;7.006;2023-03-12T00:58:48;9.13;;;2.93;;
10661;SDS011;5379;51.034;7.006;2023-03-12T05:31:13;5.07;;;1.70;;
10661;SDS011;5379;51.034;7.006;2023-03-12T05:33:41;2.73;;;1.83;;
10661;SDS011;5379;51.034;7.006;2023-03-12T05:36:09;2.17;;;1.60;;
10661;SDS011;5379;51.034;7.006;2023-03-12T05:38:36;1.70;;;1.60;;
10661;SDS011;5379;51.034;7.006;2023-03-12T05:41:03;3.63;;;2.00;;
10661;SDS011;5379;51.034;7.006;2023-03-12T05:43:31;2.87;;;2.03;;
10661;SDS011;5379;51.034;7.006;2023-03-12T05:45:58;1.67;;;1.57;;
10661;SDS011;5379;51.034;7.006;2023-03-12T05:48:29;1.73;;;1.63;;
10661;SDS011;5379;51.034;7.006;2023-03-12T05:50:56;1.80;;;1.70;;
10661;SDS011;5379;51.034;7.006;2023-03-12T05:53:23;3.07;;;2.47;;
10661;SDS011;5379;51.034;7.006;2023-03-12T05:55:50;2.80;;;2.00;;
10661;SDS011;5379;51.034;7.006;2023-03-12T05:58:17;2.33;;;1.73;;
10661;SDS011;5379;51.034;7.006;2023-03-12T06:00:44;3.53;;;2.10;;
10661;SDS011;5379;51.034;7.006;2023-03-12T06:03:11;4.53;;;2.40;;
10661;SDS011;5379;51.034;7.006;2023-03-12T06:05:39;1.70;;;1.60;;
10661;SDS011;5379;51.034;7.006;2023-03-12T06:08:06;2.07;;;1.93;;
10661;SDS011;5379;51.034;7.006;2023-03-12T06:10:36;2.50;;;2.07;;
10661;SDS011;5379;51.034;7.006;2023-03-12T06:13:03;4.57;;;2.03;;
10661;SDS011;5379;51.034;7.006;2023-03-12T06:15:30;3.83;;;2.10;;
10661;SDS011;5379;51.034;7.006;2023-03-12T06:17:57;2.13;;;1.93;;
10661;SDS011;5379;51.034;7.006;2023-03-12T06:20:24;3.07;;;1.63;;
10661;SDS011;5379;51.034;7.006;2023-03-12T06:22:53;3.73;;;2.23;;
10661;SDS011;5379;51.034;7.006;2023-03-12T06:25:20;3.30;;;2.40;;
10661;SDS011;5379;51.034;7.006;2023-03-12T06:27:46;2.00;;;1.90;;
10661;SDS011;5379;51.034;7.006;2023-03-12T06:30:14;8.33;;;2.20;;
10661;SDS011;5379;51.034;7.006;2023-03-12T06:32:43;4.33;;;2.47;;
10661;SDS011;5379;51.034;7.006;2023-03-12T06:35:10;3.00;;;2.37;;
10661;SDS011;5379;51.034;7.006;2023-03-12T06:37:36;2.23;;;2.03;;
10661;SDS011;5379;51.034;7.006;2023-03-12T06:40:05;3.87;;;2.40;;
10661;SDS011;5379;51.034;7.006;2023-03-12T06:42:35;2.80;;;2.30;;
10661;SDS011;5379;51.034;7.006;2023-03-12T06:45:02;3.30;;;2.33;;
10661;SDS011;5379;51.034;7.006;2023-03-12T06:47:29;8.43;;;2.20;;
10661;SDS011;5379;51.034;7.006;2023-03-12T06:49:56;7.87;;;2.60;;
10661;SDS011;5379;51.034;7.006;2023-03-12T06:52:23;2.23;;;1.97;;
10661;SDS011;5379;51.034;7.006;2023-03-12T06:54:51;2.33;;;2.13;;
10661;SDS011;5379;51.034;7.006;2023-03-12T06:57:19;9.17;;;2.50;;
10661;SDS011;5379;51.034;7.006;2023-03-12T06:59:46;2.10;;;1.93;;
10661;SDS011;5379;51.034;7.006;2023-03-12T07:02:13;2.67;;;2.30;;
10661;SDS011;5379;51.034;7.006;2023-03-12T07:04:40;3.83;;;2.40;;
10661;SDS011;5379;51.034;7.006;2023-03-12T07:07:07;2.33;;;2.13;;
10661;SDS011;5379;51.034;7.006;2023-03-12T07:09:35;3.27;;;2.37;;
10661;SDS011;5379;51.034;7.006;2023-03-12T07:12:02;3.37;;;2.17;;
10661;SDS011;5379;51.034;7.006;2023-03-12T07:14:31;2.93;;;2.20;;
10661;SDS011;5379;51.034;7.006;2023-03-12T07:16:58;4.17;;;1.97;;
10661;SDS011;5379;51.034;7.006;2023-03-12T07:19:26;3.10;;;2.20;;
10661;SDS011;5379;51.034;7.006;2023-03-12T07:21:54;1.90;;;1.80;;
10661;SDS011;5379;51.034;7.006;2023-03-12T07:24:21;2.37;;;2.10;;
10661;SDS011;5379;51.034;7.006;2023-03-12T07:26:48;5.47;;;2.03;;
10661;SDS011;5379;51.034;7.006;2023-03-12T07:29:15;2.13;;;1.93;;
10661;SDS011;5379;51.034;7.006;2023-03-12T07:31:43;4.03;;;2.23;;
10661;SDS011;5379;51.034;7.006;2023-03-12T07:34:10;2.13;;;1.93;;
10661;SDS011;5379;51.034;7.006;2023-03-12T07:36:37;2.60;;;2.40;;
10661;SDS011;5379;51.034;7.006;2023-03-12T07:39:04;2.77;;;2.00;;
10661;SDS011;5379;51.034;7.006;2023-03-12T07:41:32;3.50;;;2.03;;
10661;SDS011;5379;51.034;7.006;2023-03-12T07:44:01;3.23;;;1.90;;
10661;SDS011;5379;51.034;7.006;2023-03-12T07:46:28;2.33;;;1.87;;
10661;SDS011;5379;51.034;7.006;2023-03-12T07:48:56;2.07;;;1.87;;
10661;SDS011;5379;51.034;7.006;2023-03-12T07:51:23;2.10;;;1.90;;
10661;SDS011;5379;51.034;7.006;2023-03-12T07:53:50;4.13;;;2.37;;
10661;SDS011;5379;51.034;7.006;2023-03-12T07:56:17;1.80;;;1.70;;
10661;SDS011;5379;51.034;7.006;2023-03-12T07:58:44;3.17;;;2.10;;
10661;SDS011;5379;51.034;7.006;2023-03-12T08:01:11;6.63;;;2.00;;
10661;SDS011;5379;51.034;7.006;2023-03-12T08:03:38;2.43;;;1.90;;
10661;SDS011;5379;51.034;7.006;2023-03-12T08:06:06;2.13;;;1.57;;
10661;SDS011;5379;51.034;7.006;2023-03-12T08:08:34;1.50;;;1.40;;
10661;SDS011;5379;51.034;7.006;2023-03-12T08:11:02;6.67;;;1.90;;
10661;SDS011;5379;51.034;7.006;2023-03-12T08:13:30;1.50;;;1.40;;
10661;SDS011;5379;51.034;7.006;2023-03-12T08:15:57;7.50;;;2.20;;
10661;SDS011;5379;51.034;7.006;2023-03-12T08:18:24;3.50;;;1.77;;
10661;SDS011;5379;51.034;7.006;2023-03-12T08:20:52;11.00;;;2.27;;
10661;SDS011;5379;51.034;7.006;2023-03-12T08:23:21;3.70;;;2.03;;
10661;SDS011;5379;51.034;7.006;2023-03-12T08:25:48;2.40;;;1.90;;
10661;SDS011;5379;51.034;7.006;2023-03-12T08:28:16;4.37;;;2.20;;
10661;SDS011;5379;51.034;7.006;2023-03-12T08:30:45;3.03;;;1.87;;
10661;SDS011;5379;51.034;7.006;2023-03-12T08:33:12;2.43;;;1.90;;
10661;SDS011;5379;51.034;7.006;2023-03-12T08:35:39;1.57;;;1.47;;
10661;SDS011;5379;51.034;7.006;2023-03-12T08:38:06;2.13;;;2.03;;
10661;SDS011;5379;51.034;7.006;2023-03-12T08:40:35;4.57;;;1.93;;
10661;SDS011;5379;51.034;7.006;2023-03-12T08:43:02;1.70;;;1.60;;
10661;SDS011;5379;51.034;7.006;2023-03-12T08:45:31;3.17;;;2.27;;
10661;SDS011;5379;51.034;7.006;2023-03-12T08:48:00;2.57;;;2.13;;
10661;SDS011;5379;51.034;7.006;2023-03-12T08:50:27;8.80;;;2.60;;
10661;SDS011;5379;51.034;7.006;2023-03-12T08:52:56;5.53;;;2.20;;
10661;SDS011;5379;51.034;7.006;2023-03-12T08:55:23;5.20;;;2.80;;
10661;SDS011;5379;51.034;7.006;2023-03-12T08:57:53;2.63;;;2.43;;
10661;SDS011;5379;51.034;7.006;2023-03-12T09:00:20;3.07;;;2.77;;
10661;SDS011;5379;51.034;7.006;2023-03-12T09:02:47;5.03;;;2.60;;
10661;SDS011;5379;51.034;7.006;2023-03-12T09:05:16;3.43;;;2.83;;
10661;SDS011;5379;51.034;7.006;2023-03-12T09:07:43;4.70;;;2.77;;
10661;SDS011;5379;51.034;7.006;2023-03-12T09:10:10;4.70;;;2.70;;
10661;SDS011;5379;51.034;7.006;2023-03-12T09:12:37;3.57;;;3.27;;
10661;SDS011;5379;51.034;7.006;2023-03-12T09:15:06;3.03;;;2.83;;
10661;SDS011;5379;51.034;7.006;2023-03-12T09:17:34;9.00;;;2.90;;
10661;SDS011;5379;51.034;7.006;2023-03-12T09:20:01;7.00;;;3.63;;
10661;SDS011;5379;51.034;7.006;2023-03-12T09:22:32;3.43;;;3.20;;
10661;SDS011;5379;51.034;7.006;2023-03-12T09:25:01;3.50;;;3.20;;
10661;SDS011;5379;51.034;7.006;2023-03-12T09:27:28;7.70;;;3.90;;
10661;SDS011;5379;51.034;7.006;2023-03-12T09:29:55;7.00;;;3.47;;
10661;SDS011;5379;51.034;7.006;2023-03-12T09:32:23;7.83;;;3.57;;
10661;SDS011;5379;51.034;7.006;2023-03-12T09:34:51;3.33;;;3.00;;
10661;SDS011;5379;51.034;7.006;2023-03-12T09:37:18;6.87;;;3.43;;
10661;SDS011;5379;51.034;7.006;2023-03-12T09:39:47;7.47;;;3.77;;
10661;SDS011;5379;51.034;7.006;2023-03-12T09:42:17;8.80;;;3.53;;
10661;SDS011;5379;51.034;7.006;2023-03-12T09:44:48;6.83;;;3.20;;
10661;SDS011;5379;51.034;7.006;2023-03-12T09:47:21;6.33;;;3.60;;
10661;SDS011;5379;51.034;7.006;2023-03-12T09:49:54;11.03;;;3.63;;
10661;SDS011;5379;51.034;7.006;2023-03-12T09:52:27;4.20;;;2.93;;
10661;SDS011;5379;51.034;7.006;2023-03-12T09:55:01;7.83;;;3.90;;
10661;SDS011;5379;51.034;7.006;2023-03-12T09:57:32;4.13;;;3.73;;
10661;SDS011;5379;51.034;7.006;2023-03-12T09:59:59;7.73;;;3.77;;
10661;SDS011;5379;51.034;7.006;2023-03-12T10:02:44;7.17;;;3.77;;
10661;SDS011;5379;51.034;7.006;2023-03-12T10:05:23;4.97;;;4.47;;
10661;SDS011;5379;51.034;7.006;2023-03-12T10:07:59;9.37;;;4.00;;
10661;SDS011;5379;51.034;7.006;2023-03-12T10:10:35;4.67;;;4.20;;
10661;SDS011;5379;51.034;7.006;2023-03-12T10:16:01;8.13;;;4.57;;
10661;SDS011;5379;51.034;7.006;2023-03-12T10:18:40;7.10;;;5.13;;
10661;SDS011;5379;51.034;7.006;2023-03-12T10:21:21;7.60;;;4.63;;
10661;SDS011;5379;51.034;7.006;2023-03-12T10:23:58;4.80;;;4.40;;
10661;SDS011;5379;51.034;7.006;2023-03-12T10:26:33;7.23;;;3.80;;
10661;SDS011;5379;51.034;7.006;2023-03-12T10:29:05;4.10;;;3.80;;
10661;SDS011;5379;51.034;7.006;2023-03-12T10:31:42;5.60;;;4.60;;
10661;SDS011;5379;51.034;7.006;2023-03-12T10:34:22;4.33;;;3.77;;
10661;SDS011;5379;51.034;7.006;2023-03-12T10:36:56;4.70;;;4.30;;
10661;SDS011;5379;51.034;7.006;2023-03-12T10:39:25;5.77;;;4.30;;
10661;SDS011;5379;51.034;7.006;2023-03-12T10:41:54;4.93;;;4.43;;
10661;SDS011;5379;51.034;7.006;2023-03-12T10:44:22;6.83;;;4.27;;
10661;SDS011;5379;51.034;7.006;2023-03-12T10:46:51;4.80;;;4.37;;
10661;SDS011;5379;51.034;7.006;2023-03-12T10:49:28;8.17;;;4.80;;
10661;SDS011;5379;51.034;7.006;2023-03-12T10:51:58;4.90;;;4.40;;
10661;SDS011;5379;51.034;7.006;2023-03-12T10:54:27;13.43;;;5.27;;
10661;SDS011;5379;51.034;7.006;2023-03-12T10:56:56;5.77;;;4.53;;
10661;SDS011;5379;51.034;7.006;2023-03-12T10:59:25;5.07;;;4.60;;
10661;SDS011;5379;51.034;7.006;2023-03-12T11:01:54;6.27;;;5.60;;
10661;SDS011;5379;51.034;7.006;2023-03-12T11:04:23;7.37;;;5.83;;
10661;SDS011;5379;51.034;7.006;2023-03-12T11:07:04;5.77;;;5.20;;
10661;SDS011;5379;51.034;7.006;2023-03-12T11:09:40;8.80;;;5.70;;
10661;SDS011;5379;51.034;7.006;2023-03-12T11:12:21;11.37;;;5.23;;
10661;SDS011;5379;51.034;7.006;2023-03-12T11:14:49;13.47;;;6.13;;
10661;SDS011;5379;51.034;7.006;2023-03-12T11:17:20;9.10;;;6.43;;
10661;SDS011;5379;51.034;7.006;2023-03-12T11:19:48;12.87;;;6.37;;
10661;SDS011;5379;51.034;7.006;2023-03-12T11:22:27;7.50;;;5.60;;
10661;SDS011;5379;51.034;7.006;2023-03-12T11:24:56;15.97;;;7.23;;
10661;SDS011;5379;51.034;7.006;2023-03-12T11:27:27;14.93;;;7.10;;
10661;SDS011;5379;51.034;7.006;2023-03-12T11:30:00;13.10;;;7.00;;
10661;SDS011;5379;51.034;7.006;2023-03-12T11:32:30;17.93;;;6.67;;
10661;SDS011;5379;51.034;7.006;2023-03-12T11:34:59;19.00;;;6.77;;
10661;SDS011;5379;51.034;7.006;2023-03-12T11:37:33;8.80;;;6.10;;
10661;SDS011;5379;51.034;7.006;2023-03-12T11:40:16;11.67;;;6.77;;
10661;SDS011;5379;51.034;7.006;2023-03-12T11:42:54;8.30;;;6.33;;
10661;SDS011;5379;51.034;7.006;2023-03-12T11:45:44;9.67;;;6.63;;
10661;SDS011;5379;51.034;7.006;2023-03-12T11:48:20;8.67;;;6.83;;
10661;SDS011;5379;51.034;7.006;2023-03-12T11:50:54;8.13;;;6.97;;
10661;SDS011;5379;51.034;7.006;2023-03-12T11:53:34;8.07;;;7.27;;
10661;SDS011;5379;51.034;7.006;2023-03-12T11:56:23;10.07;;;7.53;;
10661;SDS011;5379;51.034;7.006;2023-03-12T11:58:56;12.13;;;7.17;;
10661;SDS011;5379;51.034;7.006;2023-03-12T12:01:42;14.33;;;7.67;;
10661;SDS011;5379;51.034;7.006;2023-03-12T12:07:14;13.43;;;7.93;;
10661;SDS011;5379;51.034;7.006;2023-03-12T12:09:49;9.47;;;7.63;;
10661;SDS011;5379;51.034;7.006;2023-03-12T12:12:29;19.63;;;9.20;;
10661;SDS011;5379;51.034;7.006;2023-03-12T12:15:11;14.90;;;9.20;;
10661;SDS011;5379;51.034;7.006;2023-03-12T12:17:50;14.33;;;9.10;;
10661;SDS011;5379;51.034;7.006;2023-03-12T12:20:27;22.43;;;8.93;;
10661;SDS011;5379;51.034;7.006;2023-03-12T12:23:16;18.37;;;9.87;;
10661;SDS011;5379;51.034;7.006;2023-03-12T12:25:54;13.27;;;9.43;;
10661;SDS011;5379;51.034;7.006;2023-03-12T12:28:33;16.47;;;9.33;;
10661;SDS011;5379;51.034;7.006;2023-03-12T12:31:18;19.10;;;9.00;;
10661;SDS011;5379;51.034;7.006;2023-03-12T12:33:57;12.03;;;9.50;;
10661;SDS011;5379;51.034;7.006;2023-03-12T12:36:36;22.00;;;10.93;;
10661;SDS011;5379;51.034;7.006;2023-03-12T12:39:07;17.63;;;10.40;;
10661;SDS011;5379;51.034;7.006;2023-03-12T12:41:41;15.10;;;11.53;;
10661;SDS011;5379;51.034;7.006;2023-03-12T12:44:12;20.13;;;10.93;;
10661;SDS011;5379;51.034;7.006;2023-03-12T12:50:39;19.27;;;10.43;;
10661;SDS011;5379;51.034;7.006;2023-03-12T12:53:13;19.80;;;11.63;;
10661;SDS011;5379;51.034;7.006;2023-03-12T12:55:53;21.63;;;10.73;;
10661;SDS011;5379;51.034;7.006;2023-03-12T12:59:15;18.57;;;11.33;;
10661;SDS011;5379;51.034;7.006;2023-03-12T13:02:19;22.40;;;11.20;;
10661;SDS011;5379;51.034;7.006;2023-03-12T13:04:53;15.93;;;9.70;;
10661;SDS011;5379;51.034;7.006;2023-03-12T13:07:28;15.60;;;8.77;;
10661;SDS011;5379;51.034;7.006;2023-03-12T13:09:58;26.17;;;8.33;;
10661;SDS011;5379;51.034;7.006;2023-03-12T13:12:31;19.93;;;7.17;;
10661;SDS011;5379;51.034;7.006;2023-03-12T13:15:13;28.40;;;6.33;;
10661;SDS011;5379;51.034;7.006;2023-03-12T13:18:05;22.13;;;6.07;;
10661;SDS011;5379;51.034;7.006;2023-03-12T13:20:36;33.30;;;7.17;;
10661;SDS011;5379;51.034;7.006;2023-03-12T13:23:13;25.90;;;5.33;;
10661;SDS011;5379;51.034;7.006;2023-03-12T13:25:58;27.40;;;6.90;;
10661;SDS011;5379;51.034;7.006;2023-03-12T13:28:30;20.13;;;6.50;;
10661;SDS011;5379;51.034;7.006;2023-03-12T13:40:52;13.43;;;4.40;;
10661;SDS011;5379;51.034;7.006;2023-03-12T13:43:50;30.27;;;5.50;;
10661;SDS011;5379;51.034;7.006;2023-03-12T13:46:59;23.20;;;5.30;;
10661;SDS011;5379;51.034;7.006;2023-03-12T15:21:52;8.60;;;3.97;;
10661;SDS011;5379;51.034;7.006;2023-03-12T15:24:40;11.90;;;4.00;;
10661;SDS011;5379;51.034;7.006;2023-03-12T15:27:18;10.70;;;3.47;;
10661;SDS011;5379;51.034;7.006;2023-03-12T15:29:47;9.10;;;4.27;;
10661;SDS011;5379;51.034;7.006;2023-03-12T15:32:15;11.97;;;3.93;;
10661;SDS011;5379;51.034;7.006;2023-03-12T15:34:44;9.43;;;4.13;;
10661;SDS011;5379;51.034;7.006;2023-03-12T15:37:23;7.53;;;3.50;;
10661;SDS011;5379;51.034;7.006;2023-03-12T15:39:56;14.07;;;4.63;;
10661;SDS011;5379;51.034;7.006;2023-03-12T15:42:28;10.77;;;4.20;;
10661;SDS011;5379;51.034;7.006;2023-03-12T15:45:04;10.37;;;4.23;;
10661;SDS011;5379;51.034;7.006;2023-03-12T15:47:48;9.93;;;2.23;;
10661;SDS011;5379;51.034;7.006;2023-03-12T15:50:25;10.57;;;4.00;;
10661;SDS011;5379;51.034;7.006;2023-03-12T15:53:02;7.10;;;3.03;;
10661;SDS011;5379;51.034;7.006;2023-03-12T15:55:31;10.63;;;4.27;;
10661;SDS011;5379;51.034;7.006;2023-03-12T15:58:00;5.57;;;2.70;;
10661;SDS011;5379;51.034;7.006;2023-03-12T16:00:28;5.00;;;3.30;;
10661;SDS011;5379;51.034;7.006;2023-03-12T16:02:56;8.77;;;3.60;;
10661;SDS011;5379;51.034;7.006;2023-03-12T16:05:25;9.00;;;3.67;;
10661;SDS011;5379;51.034;7.006;2023-03-12T16:07:54;8.53;;;2.93;;
10661;SDS011;5379;51.034;7.006;2023-03-12T16:10:24;12.40;;;3.80;;
10661;SDS011;5379;51.034;7.006;2023-03-12T16:12:57;12.90;;;2.80;;
10661;SDS011;5379;51.034;7.006;2023-03-12T16:15:27;7.50;;;3.87;;
10661;SDS011;5379;51.034;7.006;2023-03-12T16:17:56;11.17;;;3.80;;
10661;SDS011;5379;51.034;7.006;2023-03-12T16:20:24;13.13;;;4.20;;
10661;SDS011;5379;51.034;7.006;2023-03-12T16:22:51;15.27;;;4.17;;
10661;SDS011;5379;51.034;7.006;2023-03-12T16:25:18;17.80;;;4.90;;
10661;SDS011;5379;51.034;7.006;2023-03-12T16:27:53;13.40;;;4.70;;
10661;SDS011;5379;51.034;7.006;2023-03-12T16:30:24;12.27;;;4.07;;
10661;SDS011;5379;51.034;7.006;2023-03-12T16:32:53;10.77;;;3.67;;
10661;SDS011;5379;51.034;7.006;2023-03-12T16:35:20;10.43;;;3.73;;
10661;SDS011;5379;51.034;7.006;2023-03-12T16:37:47;14.27;;;3.60;;
10661;SDS011;5379;51.034;7.006;2023-03-12T16:40:15;9.20;;;4.60;;
10661;SDS011;5379;51.034;7.006;2023-03-12T16:42:44;9.40;;;3.60;;
10661;SDS011;5379;51.034;7.006;2023-03-12T16:45:16;2.60;;;2.13;;
10661;SDS011;5379;51.034;7.006;2023-03-12T16:47:43;15.90;;;3.67;;
10661;SDS011;5379;51.034;7.006;2023-03-12T16:50:12;15.03;;;4.33;;
10661;SDS011;5379;51.034;7.006;2023-03-12T16:52:40;13.93;;;4.90;;
10661;SDS011;5379;51.034;7.006;2023-03-12T16:55:10;17.90;;;4.33;;
10661;SDS011;5379;51.034;7.006;2023-03-12T16:57:39;11.80;;;3.97;;
10661;SDS011;5379;51.034;7.006;2023-03-12T17:00:11;20.37;;;3.60;;
10661;SDS011;5379;51.034;7.006;2023-03-12T17:02:42;19.23;;;5.03;;
10661;SDS011;5379;51.034;7.006;2023-03-12T17:05:09;13.80;;;4.20;;
10661;SDS011;5379;51.034;7.006;2023-03-12T17:07:37;15.67;;;4.10;;
10661;SDS011;5379;51.034;7.006;2023-03-12T17:10:05;14.90;;;4.30;;
10661;SDS011;5379;51.034;7.006;2023-03-12T17:12:33;11.40;;;3.70;;
10661;SDS011;5379;51.034;7.006;2023-03-12T17:15:04;8.43;;;3.60;;
10661;SDS011;5379;51.034;7.006;2023-03-12T17:17:33;9.23;;;3.87;;
10661;SDS011;5379;51.034;7.006;2023-03-12T17:20:01;12.50;;;4.00;;
10661;SDS011;5379;51.034;7.006;2023-03-12T17:22:32;11.53;;;4.13;;
10661;SDS011;5379;51.034;7.006;2023-03-12T17:24:59;10.23;;;3.57;;
10661;SDS011;5379;51.034;7.006;2023-03-12T17:27:26;17.13;;;4.53;;
10661;SDS011;5379;51.034;7.006;2023-03-12T17:29:53;11.47;;;3.60;;
10661;SDS011;5379;51.034;7.006;2023-03-12T17:32:20;8.50;;;3.93;;
10661;SDS011;5379;51.034;7.006;2023-03-12T17:34:49;10.67;;;3.80;;
10661;SDS011;5379;51.034;7.006;2023-03-12T17:37:21;14.37;;;3.90;;
10661;SDS011;5379;51.034;7.006;2023-03-12T17:39:48;11.60;;;4.53;;
10661;SDS011;5379;51.034;7.006;2023-03-12T17:42:15;19.27;;;4.53;;
10661;SDS011;5379;51.034;7.006;2023-03-12T17:44:43;13.93;;;5.10;;
10661;SDS011;5379;51.034;7.006;2023-03-12T17:47:10;13.27;;;5.03;;
10661;SDS011;5379;51.034;7.006;2023-03-12T17:49:37;11.47;;;4.43;;
10661;SDS011;5379;51.034;7.006;2023-03-12T17:52:04;16.17;;;4.53;;
10661;SDS011;5379;51.034;7.006;2023-03-12T17:54:32;25.73;;;4.90;;
10661;SDS011;5379;51.034;7.006;2023-03-12T17:57:00;13.90;;;4.27;;
10661;SDS011;5379;51.034;7.006;2023-03-12T17:59:27;12.97;;;5.43;;
10661;SDS011;5379;51.034;7.006;2023-03-12T18:01:54;26.40;;;5.40;;
10661;SDS011;5379;51.034;7.006;2023-03-12T18:04:21;11.77;;;3.93;;
10661;SDS011;5379;51.034;7.006;2023-03-12T18:06:48;19.53;;;4.10;;
10661;SDS011;5379;51.034;7.006;2023-03-12T18:09:15;9.33;;;4.13;;
10661;SDS011;5379;51.034;7.006;2023-03-12T18:11:43;13.93;;;4.60;;
10661;SDS011;5379;51.034;7.006;2023-03-12T18:14:10;13.17;;;4.50;;
10661;SDS011;5379;51.034;7.006;2023-03-12T18:16:37;13.57;;;4.03;;
10661;SDS011;5379;51.034;7.006;2023-03-12T18:19:04;9.43;;;4.40;;
10661;SDS011;5379;51.034;7.006;2023-03-12T18:21:31;8.10;;;4.10;;
10661;SDS011;5379;51.034;7.006;2023-03-12T18:23:58;18.20;;;4.97;;
10661;SDS011;5379;51.034;7.006;2023-03-12T18:26:25;14.83;;;4.37;;
10661;SDS011;5379;51.034;7.006;2023-03-12T18:28:53;11.87;;;4.37;;
10661;SDS011;5379;51.034;7.006;2023-03-12T18:31:22;12.03;;;4.50;;
10661;SDS011;5379;51.034;7.006;2023-03-12T18:33:49;14.80;;;4.80;;
10661;SDS011;5379;51.034;7.006;2023-03-12T18:36:16;12.60;;;4.83;;
10661;SDS011;5379;51.034;7.006;2023-03-12T18:38:43;19.03;;;4.73;;
10661;SDS011;5379;51.034;7.006;2023-03-12T18:41:11;24.43;;;5.57;;
10661;SDS011;5379;51.034;7.006;2023-03-12T18:43:39;17.53;;;5.47;;
10661;SDS011;5379;51.034;7.006;2023-03-12T18:46:08;16.27;;;4.93;;
10661;SDS011;5379;51.034;7.006;2023-03-12T18:48:35;12.30;;;4.37;;
10661;SDS011;5379;51.034;7.006;2023-03-12T18:51:02;11.77;;;4.20;;
10661;SDS011;5379;51.034;7.006;2023-03-12T18:53:29;18.57;;;4.10;;
10661;SDS011;5379;51.034;7.006;2023-03-12T18:55:57;9.27;;;3.90;;
10661;SDS011;5379;51.034;7.006;2023-03-12T18:58:25;8.07;;;4.00;;
10661;SDS011;5379;51.034;7.006;2023-03-12T19:00:53;7.53;;;3.63;;
10661;SDS011;5379;51.034;7.006;2023-03-12T19:03:23;7.67;;;3.87;;
10661;SDS011;5379;51.034;7.006;2023-03-12T19:05:59;12.90;;;4.50;;
10661;SDS011;5379;51.034;7.006;2023-03-12T19:08:27;9.90;;;3.83;;
10661;SDS011;5379;51.034;7.006;2023-03-12T19:10:54;6.53;;;3.20;;
10661;SDS011;5379;51.034;7.006;2023-03-12T19:13:21;17.50;;;4.70;;
10661;SDS011;5379;51.034;7.006;2023-03-12T19:15:48;12.73;;;4.27;;
10661;SDS011;5379;51.034;7.006;2023-03-12T19:18:15;15.50;;;4.20;;
10661;SDS011;5379;51.034;7.006;2023-03-12T19:20:43;15.17;;;5.03;;
10661;SDS011;5379;51.034;7.006;2023-03-12T19:23:10;10.60;;;3.90;;
10661;SDS011;5379;51.034;7.006;2023-03-12T19:25:37;13.07;;;4.50;;
10661;SDS011;5379;51.034;7.006;2023-03-12T19:28:04;12.63;;;3.77;;
10661;SDS011;5379;51.034;7.006;2023-03-12T19:30:31;11.90;;;4.17;;
10661;SDS011;5379;51.034;7.006;2023-03-12T19:32:58;17.43;;;5.00;;
10661;SDS011;5379;51.034;7.006;2023-03-12T19:35:25;10.20;;;4.10;;
10661;SDS011;5379;51.034;7.006;2023-03-12T19:37:55;11.93;;;3.93;;
10661;SDS011;5379;51.034;7.006;2023-03-12T19:40:23;13.87;;;4.90;;
10661;SDS011;5379;51.034;7.006;2023-03-12T19:42:50;20.67;;;4.87;;
10661;SDS011;5379;51.034;7.006;2023-03-12T19:45:17;23.83;;;5.10;;
10661;SDS011;5379;51.034;7.006;2023-03-12T19:47:44;12.47;;;4.17;;
10661;SDS011;5379;51.034;7.006;2023-03-12T19:50:11;15.37;;;4.40;;
10661;SDS011;5379;51.034;7.006;2023-03-12T19:52:38;11.47;;;4.37;;
10661;SDS011;5379;51.034;7.006;2023-03-12T19:55:06;25.50;;;4.87;;
10661;SDS011;5379;51.034;7.006;2023-03-12T19:57:35;16.30;;;4.53;;
10661;SDS011;5379;51.034;7.006;2023-03-12T20:00:03;9.03;;;4.50;;
10661;SDS011;5379;51.034;7.006;2023-03-12T20:02:33;13.30;;;4.50;;
10661;SDS011;5379;51.034;7.006;2023-03-12T20:05:01;13.03;;;4.90;;
10661;SDS011;5379;51.034;7.006;2023-03-12T20:07:28;12.37;;;4.60;;
10661;SDS011;5379;51.034;7.006;2023-03-12T20:09:55;15.87;;;4.73;;
10661;SDS011;5379;51.034;7.006;2023-03-12T20:12:23;15.27;;;4.47;;
10661;SDS011;5379;51.034;7.006;2023-03-12T20:14:50;12.53;;;5.03;;
10661;SDS011;5379;51.034;7.006;2023-03-12T20:17:17;18.37;;;4.67;;
10661;SDS011;5379;51.034;7.006;2023-03-12T20:19:44;16.10;;;4.20;;
10661;SDS011;5379;51.034;7.006;2023-03-12T20:22:11;17.03;;;4.43;;
10661;SDS011;5379;51.034;7.006;2023-03-12T20:24:39;21.33;;;4.60;;
10661;SDS011;5379;51.034;7.006;2023-03-12T20:27:06;8.47;;;4.10;;
10661;SDS011;5379;51.034;7.006;2023-03-12T20:29:34;16.20;;;4.23;;
10661;SDS011;5379;51.034;7.006;2023-03-12T20:32:01;9.47;;;4.23;;
10661;SDS011;5379;51.034;7.006;2023-03-12T20:34:28;23.33;;;4.23;;
10661;SDS011;5379;51.034;7.006;2023-03-12T20:36:56;12.37;;;4.20;;
10661;SDS011;5379;51.034;7.006;2023-03-12T20:39:23;21.80;;;4.37;;
10661;SDS011;5379;51.034;7.006;2023-03-12T20:41:50;17.40;;;4.40;;
10661;SDS011;5379;51.034;7.006;2023-03-12T20:44:17;12.37;;;3.90;;
10661;SDS011;5379;51.034;7.006;2023-03-12T20:46:46;14.83;;;4.20;;
10661;SDS011;5379;51.034;7.006;2023-03-12T20:49:13;9.50;;;4.37;;
10661;SDS011;5379;51.034;7.006;2023-03-12T20:51:40;7.00;;;3.90;;
10661;SDS011;5379;51.034;7.006;2023-03-12T20:54:08;10.73;;;4.60;;
10661;SDS011;5379;51.034;7.006;2023-03-12T20:56:35;9.80;;;4.50;;
10661;SDS011;5379;51.034;7.006;2023-03-12T20:59:07;7.00;;;3.97;;
10661;SDS011;5379;51.034;7.006;2023-03-12T21:01:34;9.40;;;3.97;;
10661;SDS011;5379;51.034;7.006;2023-03-12T21:04:02;18.47;;;4.53;;
10661;SDS011;5379;51.034;7.006;2023-03-12T21:06:29;14.43;;;4.20;;
10661;SDS011;5379;51.034;7.006;2023-03-12T21:08:57;11.67;;;4.00;;
10661;SDS011;5379;51.034;7.006;2023-03-12T21:11:24;12.60;;;4.53;;
10661;SDS011;5379;51.034;7.006;2023-03-12T21:13:51;13.57;;;5.23;;
10661;SDS011;5379;51.034;7.006;2023-03-12T21:16:18;7.50;;;3.73;;
10661;SDS011;5379;51.034;7.006;2023-03-12T21:18:45;13.60;;;4.73;;
10661;SDS011;5379;51.034;7.006;2023-03-12T21:21:14;9.93;;;4.47;;
10661;SDS011;5379;51.034;7.006;2023-03-12T21:23:41;14.80;;;4.70;;
10661;SDS011;5379;51.034;7.006;2023-03-12T21:26:07;16.97;;;4.67;;
10661;SDS011;5379;51.034;7.006;2023-03-12T21:28:36;10.07;;;4.10;;
10661;SDS011;5379;51.034;7.006;2023-03-12T21:31:04;14.37;;;4.57;;
10661;SDS011;5379;51.034;7.006;2023-03-12T21:33:31;13.13;;;3.93;;
10661;SDS011;5379;51.034;7.006;2023-03-12T21:35:58;9.67;;;4.03;;